Needles, CA

9:31 PM PST on January 30, 2015 (GMT -0800)
Needles | Change Station
CLOSE
Current Station
Airport
Location: Needles,
Elevation: 981 ft
Nearby Weather Stations

Elev 981 ft 34.77 °N, 114.62 °W | Updated 35 minutes ago

Overcast
Overcast
57 °F
Feels Like 57 °F
N
8
Wind Variable Wind from North

Today
High -- | Low -- °F
--% Chance of Precip.
Yesterday
High -- | Low -- °F
Precip. -- in
6:38 AM 5:05 PM
Waxing Gibbous, 87% visible
Pressure 29.82 in
Visibility 10.0 miles
Clouds Overcast 7000 ft
Dew Point 48 °F
Humidity 72%
Rainfall 0.29 in
Snow Depth Not available.
UV 0 out of 12
Pollen 2.70 out of 12
Air Quality Not available.
Flu Activity Not available.
METAR KEED 310456Z AUTO 35007KT 10SM OVC070 14/09 A2986 RMK AO2 SLP098 T01390089

More Conditions Fewer Conditions

Pressure 29.82 in
Visibility 10.0 miles
Clouds Overcast 7000 ft
Dew Point 48 °F
Humidity 72%
Rainfall 0.29 in
Snow Depth Not available.
UV 0 out of 12
Pollen 2.70 out of 12
Air Quality Not available.
Flu Activity Not available.
METAR KEED 310456Z AUTO 35007KT 10SM OVC070 14/09 A2986 RMK AO2 SLP098 T01390089

More Conditions Fewer Conditions

10-Day Weather Forecast

Almanac

Astronomy

Jan. 30, 2015 Rise Set
Actual Time
Civil Twilight
Nautical Twilight
Astronomical Twilight
Moon
Length of Visible Light
Length of Day
Tomorrow will be .
, % of the Moon is Illuminated

Today's Extremes

State Highs State Lows

Community

WunderPhotos

Upload Photos

1,792,005 photos uploaded!

WunderBlogs® & News

Nearby

Air Quality

  Air Quality AQ Index Pollutant
Not available.

Snow Depth

Station Depth Elevation

Earthquake Activity

City Distance Mag. Time & Date
Minimum magnitude displayed is 2.5.

Coastal Water Temperatures

Place Temperature

Nearby Weather Stations